sensor_id;sensor_type;location;lat;lon;timestamp;P1;durP1;ratioP1;P2;durP2;ratioP2
15039;SDS011;7617;47.366;8.558;2024-03-23T00:54:40;3.30;;;2.20;;
15039;SDS011;7617;47.366;8.558;2024-03-23T00:57:06;2.50;;;2.00;;
15039;SDS011;7617;47.366;8.558;2024-03-23T00:59:33;3.38;;;2.00;;
15039;SDS011;7617;47.366;8.558;2024-03-23T01:02:00;2.95;;;2.03;;
15039;SDS011;7617;47.366;8.558;2024-03-23T01:04:28;3.13;;;1.92;;
15039;SDS011;7617;47.366;8.558;2024-03-23T01:06:54;2.17;;;1.77;;
15039;SDS011;7617;47.366;8.558;2024-03-23T01:09:23;2.60;;;1.52;;
15039;SDS011;7617;47.366;8.558;2024-03-23T01:11:49;2.42;;;1.85;;
15039;SDS011;7617;47.366;8.558;2024-03-23T01:14:16;2.55;;;1.73;;
15039;SDS011;7617;47.366;8.558;2024-03-23T01:16:43;2.67;;;1.73;;
15039;SDS011;7617;47.366;8.558;2024-03-23T01:19:10;2.97;;;1.60;;
15039;SDS011;7617;47.366;8.558;2024-03-23T01:21:37;1.77;;;1.42;;
15039;SDS011;7617;47.366;8.558;2024-03-23T01:24:05;2.10;;;1.60;;
15039;SDS011;7617;47.366;8.558;2024-03-23T01:26:33;2.67;;;1.55;;
15039;SDS011;7617;47.366;8.558;2024-03-23T01:29:01;2.47;;;1.75;;
15039;SDS011;7617;47.366;8.558;2024-03-23T01:31:27;2.60;;;2.03;;
15039;SDS011;7617;47.366;8.558;2024-03-23T01:33:55;2.25;;;1.75;;
15039;SDS011;7617;47.366;8.558;2024-03-23T01:36:21;5.75;;;1.73;;
15039;SDS011;7617;47.366;8.558;2024-03-23T01:38:49;7.32;;;1.70;;
15039;SDS011;7617;47.366;8.558;2024-03-23T01:41:16;1.95;;;1.58;;
15039;SDS011;7617;47.366;8.558;2024-03-23T01:43:45;3.40;;;1.65;;
15039;SDS011;7617;47.366;8.558;2024-03-23T01:46:11;2.10;;;1.88;;
15039;SDS011;7617;47.366;8.558;2024-03-23T01:48:38;2.13;;;1.92;;
15039;SDS011;7617;47.366;8.558;2024-03-23T01:51:04;2.17;;;1.67;;
15039;SDS011;7617;47.366;8.558;2024-03-23T01:53:33;2.88;;;1.75;;
15039;SDS011;7617;47.366;8.558;2024-03-23T01:55:59;2.90;;;1.60;;
15039;SDS011;7617;47.366;8.558;2024-03-23T01:58:27;2.67;;;1.85;;
15039;SDS011;7617;47.366;8.558;2024-03-23T02:00:55;3.47;;;1.90;;
15039;SDS011;7617;47.366;8.558;2024-03-23T02:03:24;3.08;;;1.75;;
15039;SDS011;7617;47.366;8.558;2024-03-23T02:05:51;1.85;;;1.55;;
15039;SDS011;7617;47.366;8.558;2024-03-23T02:08:20;1.88;;;1.77;;
15039;SDS011;7617;47.366;8.558;2024-03-23T02:10:47;1.83;;;1.67;;
15039;SDS011;7617;47.366;8.558;2024-03-23T02:13:15;2.30;;;1.40;;
15039;SDS011;7617;47.366;8.558;2024-03-23T02:15:43;2.97;;;1.83;;
15039;SDS011;7617;47.366;8.558;2024-03-23T02:18:12;4.25;;;2.50;;
15039;SDS011;7617;47.366;8.558;2024-03-23T02:20:38;3.53;;;1.83;;
15039;SDS011;7617;47.366;8.558;2024-03-23T02:23:13;2.95;;;2.38;;
15039;SDS011;7617;47.366;8.558;2024-03-23T02:25:40;3.67;;;2.17;;
15039;SDS011;7617;47.366;8.558;2024-03-23T02:28:07;2.80;;;2.13;;
15039;SDS011;7617;47.366;8.558;2024-03-23T02:30:34;3.70;;;2.70;;
15039;SDS011;7617;47.366;8.558;2024-03-23T02:33:01;3.05;;;2.47;;
15039;SDS011;7617;47.366;8.558;2024-03-23T02:35:28;2.70;;;2.50;;
15039;SDS011;7617;47.366;8.558;2024-03-23T02:37:55;2.72;;;2.45;;
15039;SDS011;7617;47.366;8.558;2024-03-23T02:40:24;2.95;;;2.40;;
15039;SDS011;7617;47.366;8.558;2024-03-23T02:42:51;3.97;;;2.33;;
15039;SDS011;7617;47.366;8.558;2024-03-23T02:45:18;4.35;;;2.63;;
15039;SDS011;7617;47.366;8.558;2024-03-23T02:47:45;3.45;;;2.70;;
15039;SDS011;7617;47.366;8.558;2024-03-23T02:50:12;3.08;;;2.28;;
15039;SDS011;7617;47.366;8.558;2024-03-23T02:52:40;2.67;;;2.47;;
15039;SDS011;7617;47.366;8.558;2024-03-23T02:55:07;3.25;;;2.47;;
15039;SDS011;7617;47.366;8.558;2024-03-23T02:57:36;3.45;;;2.60;;
15039;SDS011;7617;47.366;8.558;2024-03-23T03:00:03;3.40;;;3.10;;
15039;SDS011;7617;47.366;8.558;2024-03-23T03:02:32;4.32;;;2.55;;
15039;SDS011;7617;47.366;8.558;2024-03-23T03:04:59;5.70;;;2.88;;
15039;SDS011;7617;47.366;8.558;2024-03-23T03:07:26;6.60;;;2.83;;
15039;SDS011;7617;47.366;8.558;2024-03-23T03:09:53;3.35;;;2.45;;
15039;SDS011;7617;47.366;8.558;2024-03-23T03:12:21;5.18;;;2.42;;
15039;SDS011;7617;47.366;8.558;2024-03-23T03:14:49;2.40;;;2.20;;
15039;SDS011;7617;47.366;8.558;2024-03-23T03:17:16;3.75;;;2.30;;
15039;SDS011;7617;47.366;8.558;2024-03-23T03:19:45;2.20;;;2.00;;
15039;SDS011;7617;47.366;8.558;2024-03-23T03:22:12;2.65;;;1.95;;
15039;SDS011;7617;47.366;8.558;2024-03-23T03:24:39;2.90;;;2.00;;
15039;SDS011;7617;47.366;8.558;2024-03-23T03:27:07;2.67;;;2.08;;
15039;SDS011;7617;47.366;8.558;2024-03-23T03:29:36;3.10;;;2.40;;
15039;SDS011;7617;47.366;8.558;2024-03-23T03:32:04;2.72;;;2.00;;
15039;SDS011;7617;47.366;8.558;2024-03-23T03:34:31;3.17;;;1.67;;
15039;SDS011;7617;47.366;8.558;2024-03-23T03:36:58;2.95;;;1.80;;
15039;SDS011;7617;47.366;8.558;2024-03-23T03:39:25;2.85;;;1.85;;
15039;SDS011;7617;47.366;8.558;2024-03-23T03:41:53;2.50;;;2.05;;
15039;SDS011;7617;47.366;8.558;2024-03-23T03:44:19;2.58;;;1.60;;
15039;SDS011;7617;47.366;8.558;2024-03-23T03:46:46;5.13;;;2.15;;
15039;SDS011;7617;47.366;8.558;2024-03-23T03:49:15;1.63;;;1.50;;
15039;SDS011;7617;47.366;8.558;2024-03-23T03:51:42;4.40;;;1.67;;
15039;SDS011;7617;47.366;8.558;2024-03-23T03:54:09;1.60;;;1.50;;
15039;SDS011;7617;47.366;8.558;2024-03-23T03:56:37;2.75;;;1.60;;
15039;SDS011;7617;47.366;8.558;2024-03-23T03:59:04;3.00;;;1.60;;
15039;SDS011;7617;47.366;8.558;2024-03-23T04:01:31;3.85;;;1.67;;
15039;SDS011;7617;47.366;8.558;2024-03-23T04:03:59;1.65;;;1.55;;
15039;SDS011;7617;47.366;8.558;2024-03-23T04:06:27;5.03;;;1.80;;
15039;SDS011;7617;47.366;8.558;2024-03-23T04:08:54;2.75;;;1.60;;
15039;SDS011;7617;47.366;8.558;2024-03-23T04:11:22;2.55;;;1.63;;
15039;SDS011;7617;47.366;8.558;2024-03-23T04:13:49;2.10;;;1.83;;
15039;SDS011;7617;47.366;8.558;2024-03-23T04:16:24;2.20;;;2.00;;
15039;SDS011;7617;47.366;8.558;2024-03-23T04:18:52;1.85;;;1.60;;
15039;SDS011;7617;47.366;8.558;2024-03-23T04:21:19;2.40;;;1.70;;
15039;SDS011;7617;47.366;8.558;2024-03-23T04:23:47;2.63;;;1.67;;
15039;SDS011;7617;47.366;8.558;2024-03-23T04:26:14;3.95;;;1.80;;
15039;SDS011;7617;47.366;8.558;2024-03-23T04:28:41;2.03;;;1.50;;
15039;SDS011;7617;47.366;8.558;2024-03-23T04:31:09;1.95;;;1.63;;
15039;SDS011;7617;47.366;8.558;2024-03-23T04:33:36;2.78;;;1.60;;
15039;SDS011;7617;47.366;8.558;2024-03-23T04:36:03;2.30;;;1.63;;
15039;SDS011;7617;47.366;8.558;2024-03-23T04:38:31;1.50;;;1.40;;
15039;SDS011;7617;47.366;8.558;2024-03-23T04:41:00;1.55;;;1.40;;
15039;SDS011;7617;47.366;8.558;2024-03-23T04:43:27;2.60;;;1.63;;
15039;SDS011;7617;47.366;8.558;2024-03-23T04:45:55;2.80;;;1.63;;
15039;SDS011;7617;47.366;8.558;2024-03-23T04:48:23;2.58;;;1.40;;
15039;SDS011;7617;47.366;8.558;2024-03-23T04:50:54;1.95;;;1.45;;
15039;SDS011;7617;47.366;8.558;2024-03-23T04:53:23;2.83;;;1.60;;
15039;SDS011;7617;47.366;8.558;2024-03-23T04:55:54;1.83;;;1.67;;
15039;SDS011;7617;47.366;8.558;2024-03-23T04:58:23;4.60;;;1.45;;
15039;SDS011;7617;47.366;8.558;2024-03-23T05:00:53;1.80;;;1.45;;
15039;SDS011;7617;47.366;8.558;2024-03-23T05:03:21;2.13;;;1.70;;
15039;SDS011;7617;47.366;8.558;2024-03-23T05:05:47;3.20;;;1.70;;
15039;SDS011;7617;47.366;8.558;2024-03-23T05:08:15;1.63;;;1.52;;
15039;SDS011;7617;47.366;8.558;2024-03-23T05:10:42;2.47;;;1.60;;
15039;SDS011;7617;47.366;8.558;2024-03-23T05:13:09;3.53;;;1.75;;
15039;SDS011;7617;47.366;8.558;2024-03-23T05:15:37;4.05;;;1.58;;
15039;SDS011;7617;47.366;8.558;2024-03-23T05:18:05;3.05;;;1.98;;
15039;SDS011;7617;47.366;8.558;2024-03-23T05:20:31;3.65;;;2.15;;
15039;SDS011;7617;47.366;8.558;2024-03-23T05:22:59;2.72;;;1.65;;
15039;SDS011;7617;47.366;8.558;2024-03-23T05:25:26;2.95;;;1.70;;
15039;SDS011;7617;47.366;8.558;2024-03-23T05:27:53;2.50;;;1.80;;
15039;SDS011;7617;47.366;8.558;2024-03-23T05:30:21;2.33;;;1.70;;
15039;SDS011;7617;47.366;8.558;2024-03-23T05:32:49;2.35;;;1.60;;
15039;SDS011;7617;47.366;8.558;2024-03-23T05:35:16;2.53;;;2.33;;
15039;SDS011;7617;47.366;8.558;2024-03-23T05:37:43;2.30;;;2.10;;
15039;SDS011;7617;47.366;8.558;2024-03-23T05:40:11;3.17;;;2.08;;
15039;SDS011;7617;47.366;8.558;2024-03-23T05:42:42;2.85;;;2.40;;
15039;SDS011;7617;47.366;8.558;2024-03-23T05:45:10;3.67;;;2.42;;
15039;SDS011;7617;47.366;8.558;2024-03-23T05:47:36;4.45;;;2.95;;
15039;SDS011;7617;47.366;8.558;2024-03-23T05:50:05;5.32;;;2.70;;
15039;SDS011;7617;47.366;8.558;2024-03-23T05:52:32;4.22;;;2.80;;
15039;SDS011;7617;47.366;8.558;2024-03-23T05:54:59;2.97;;;2.55;;
15039;SDS011;7617;47.366;8.558;2024-03-23T05:57:26;4.00;;;2.70;;
15039;SDS011;7617;47.366;8.558;2024-03-23T05:59:55;3.78;;;2.70;;
15039;SDS011;7617;47.366;8.558;2024-03-23T06:02:22;3.42;;;3.00;;
15039;SDS011;7617;47.366;8.558;2024-03-23T06:04:49;3.95;;;2.85;;
15039;SDS011;7617;47.366;8.558;2024-03-23T06:07:18;3.58;;;2.78;;
15039;SDS011;7617;47.366;8.558;2024-03-23T06:09:45;3.30;;;2.83;;
15039;SDS011;7617;47.366;8.558;2024-03-23T06:12:11;3.80;;;3.00;;
15039;SDS011;7617;47.366;8.558;2024-03-23T06:14:39;3.83;;;2.70;;
15039;SDS011;7617;47.366;8.558;2024-03-23T06:17:06;2.88;;;2.55;;
15039;SDS011;7617;47.366;8.558;2024-03-23T06:19:34;4.68;;;2.70;;
15039;SDS011;7617;47.366;8.558;2024-03-23T06:22:01;3.33;;;3.00;;
15039;SDS011;7617;47.366;8.558;2024-03-23T06:24:30;4.35;;;2.83;;
15039;SDS011;7617;47.366;8.558;2024-03-23T06:26:56;5.57;;;3.00;;
15039;SDS011;7617;47.366;8.558;2024-03-23T06:29:24;3.22;;;2.60;;
15039;SDS011;7617;47.366;8.558;2024-03-23T06:31:53;3.80;;;2.85;;
15039;SDS011;7617;47.366;8.558;2024-03-23T06:34:19;4.93;;;3.17;;
15039;SDS011;7617;47.366;8.558;2024-03-23T06:36:47;4.65;;;3.20;;
15039;SDS011;7617;47.366;8.558;2024-03-23T06:39:17;3.35;;;3.05;;
15039;SDS011;7617;47.366;8.558;2024-03-23T06:41:51;4.22;;;3.50;;
15039;SDS011;7617;47.366;8.558;2024-03-23T06:44:18;4.38;;;3.45;;
15039;SDS011;7617;47.366;8.558;2024-03-23T06:46:45;3.22;;;2.92;;
15039;SDS011;7617;47.366;8.558;2024-03-23T06:49:12;3.67;;;3.35;;
15039;SDS011;7617;47.366;8.558;2024-03-23T06:51:40;4.05;;;3.25;;
15039;SDS011;7617;47.366;8.558;2024-03-23T06:54:07;4.18;;;3.40;;
15039;SDS011;7617;47.366;8.558;2024-03-23T06:56:35;3.65;;;3.15;;
15039;SDS011;7617;47.366;8.558;2024-03-23T06:59:03;4.22;;;3.53;;
15039;SDS011;7617;47.366;8.558;2024-03-23T07:01:30;5.03;;;3.10;;
15039;SDS011;7617;47.366;8.558;2024-03-23T07:03:57;3.75;;;3.30;;
15039;SDS011;7617;47.366;8.558;2024-03-23T07:06:25;3.55;;;3.25;;
15039;SDS011;7617;47.366;8.558;2024-03-23T07:08:52;4.40;;;3.45;;
15039;SDS011;7617;47.366;8.558;2024-03-23T07:11:19;3.80;;;3.30;;
15039;SDS011;7617;47.366;8.558;2024-03-23T07:13:46;4.47;;;3.17;;
15039;SDS011;7617;47.366;8.558;2024-03-23T07:16:15;4.25;;;3.30;;
15039;SDS011;7617;47.366;8.558;2024-03-23T07:18:42;3.35;;;3.05;;
15039;SDS011;7617;47.366;8.558;2024-03-23T07:21:09;3.45;;;3.15;;
15039;SDS011;7617;47.366;8.558;2024-03-23T07:23:36;3.00;;;2.75;;
15039;SDS011;7617;47.366;8.558;2024-03-23T07:26:03;3.70;;;2.33;;
15039;SDS011;7617;47.366;8.558;2024-03-23T07:28:31;2.40;;;2.20;;
15039;SDS011;7617;47.366;8.558;2024-03-23T07:31:03;2.50;;;2.00;;
15039;SDS011;7617;47.366;8.558;2024-03-23T07:33:32;2.47;;;1.83;;
15039;SDS011;7617;47.366;8.558;2024-03-23T07:36:00;1.65;;;1.55;;
15039;SDS011;7617;47.366;8.558;2024-03-23T07:38:28;1.73;;;1.60;;
15039;SDS011;7617;47.366;8.558;2024-03-23T07:41:05;2.05;;;1.90;;
15039;SDS011;7617;47.366;8.558;2024-03-23T07:43:32;1.90;;;1.50;;
15039;SDS011;7617;47.366;8.558;2024-03-23T07:46:00;2.15;;;1.70;;
15039;SDS011;7617;47.366;8.558;2024-03-23T07:48:27;1.90;;;1.70;;
15039;SDS011;7617;47.366;8.558;2024-03-23T07:51:00;2.83;;;1.60;;
15039;SDS011;7617;47.366;8.558;2024-03-23T07:53:28;1.70;;;1.60;;
15039;SDS011;7617;47.366;8.558;2024-03-23T07:55:56;2.83;;;1.60;;
15039;SDS011;7617;47.366;8.558;2024-03-23T07:58:23;1.75;;;1.15;;
15039;SDS011;7617;47.366;8.558;2024-03-23T08:00:51;1.55;;;1.10;;
15039;SDS011;7617;47.366;8.558;2024-03-23T08:03:18;1.08;;;0.70;;
15039;SDS011;7617;47.366;8.558;2024-03-23T08:05:46;0.60;;;0.60;;
15039;SDS011;7617;47.366;8.558;2024-03-23T08:08:15;0.57;;;0.50;;
15039;SDS011;7617;47.366;8.558;2024-03-23T08:10:49;0.55;;;0.40;;
15039;SDS011;7617;47.366;8.558;2024-03-23T08:13:16;0.65;;;0.52;;
15039;SDS011;7617;47.366;8.558;2024-03-23T08:15:44;0.60;;;0.40;;
15039;SDS011;7617;47.366;8.558;2024-03-23T08:18:11;0.93;;;0.50;;
15039;SDS011;7617;47.366;8.558;2024-03-23T08:20:39;0.50;;;0.30;;
15039;SDS011;7617;47.366;8.558;2024-03-23T08:23:05;0.82;;;0.65;;
15039;SDS011;7617;47.366;8.558;2024-03-23T08:25:35;0.40;;;0.30;;
15039;SDS011;7617;47.366;8.558;2024-03-23T08:28:01;0.30;;;0.30;;
15039;SDS011;7617;47.366;8.558;2024-03-23T08:30:28;0.30;;;0.30;;
15039;SDS011;7617;47.366;8.558;2024-03-23T08:32:56;0.82;;;0.30;;
15039;SDS011;7617;47.366;8.558;2024-03-23T08:35:25;0.85;;;0.50;;
15039;SDS011;7617;47.366;8.558;2024-03-23T08:37:52;0.30;;;0.30;;
15039;SDS011;7617;47.366;8.558;2024-03-23T08:40:19;0.75;;;0.40;;
15039;SDS011;7617;47.366;8.558;2024-03-23T08:42:46;0.68;;;0.40;;
15039;SDS011;7617;47.366;8.558;2024-03-23T08:45:14;1.00;;;0.40;;
15039;SDS011;7617;47.366;8.558;2024-03-23T08:47:40;0.77;;;0.70;;
15039;SDS011;7617;47.366;8.558;2024-03-23T08:50:08;1.73;;;0.57;;
15039;SDS011;7617;47.366;8.558;2024-03-23T08:52:35;1.60;;;0.77;;
15039;SDS011;7617;47.366;8.558;2024-03-23T08:55:02;1.58;;;0.70;;
15039;SDS011;7617;47.366;8.558;2024-03-23T08:57:30;2.13;;;0.50;;
15039;SDS011;7617;47.366;8.558;2024-03-23T08:59:58;2.10;;;0.75;;
15039;SDS011;7617;47.366;8.558;2024-03-23T09:02:25;1.67;;;0.80;;
15039;SDS011;7617;47.366;8.558;2024-03-23T09:04:52;1.42;;;0.70;;
15039;SDS011;7617;47.366;8.558;2024-03-23T09:07:19;3.50;;;1.05;;
15039;SDS011;7617;47.366;8.558;2024-03-23T09:09:46;2.70;;;1.00;;
15039;SDS011;7617;47.366;8.558;2024-03-23T09:12:14;3.38;;;0.98;;
15039;SDS011;7617;47.366;8.558;2024-03-23T09:14:41;6.28;;;1.10;;
15039;SDS011;7617;47.366;8.558;2024-03-23T09:17:10;2.85;;;1.00;;
15039;SDS011;7617;47.366;8.558;2024-03-23T09:19:36;2.92;;;1.20;;
15039;SDS011;7617;47.366;8.558;2024-03-23T09:22:03;3.08;;;1.00;;
15039;SDS011;7617;47.366;8.558;2024-03-23T09:24:30;5.85;;;1.08;;
15039;SDS011;7617;47.366;8.558;2024-03-23T09:26:57;1.58;;;0.90;;
15039;SDS011;7617;47.366;8.558;2024-03-23T09:29:24;3.17;;;0.95;;
15039;SDS011;7617;47.366;8.558;2024-03-23T09:31:51;3.80;;;1.00;;
15039;SDS011;7617;47.366;8.558;2024-03-23T09:34:19;3.20;;;1.10;;
15039;SDS011;7617;47.366;8.558;2024-03-23T09:36:46;3.10;;;1.20;;
15039;SDS011;7617;47.366;8.558;2024-03-23T09:39:13;1.63;;;1.00;;
15039;SDS011;7617;47.366;8.558;2024-03-23T09:41:41;3.50;;;1.15;;
15039;SDS011;7617;47.366;8.558;2024-03-23T09:44:08;4.25;;;1.02;;
15039;SDS011;7617;47.366;8.558;2024-03-23T09:46:35;5.30;;;1.30;;
15039;SDS011;7617;47.366;8.558;2024-03-23T09:49:02;2.22;;;1.23;;
15039;SDS011;7617;47.366;8.558;2024-03-23T09:51:32;4.03;;;1.13;;
15039;SDS011;7617;47.366;8.558;2024-03-23T09:53:58;4.10;;;1.40;;
15039;SDS011;7617;47.366;8.558;2024-03-23T09:56:25;3.67;;;1.10;;
15039;SDS011;7617;47.366;8.558;2024-03-23T09:58:59;6.38;;;1.35;;
15039;SDS011;7617;47.366;8.558;2024-03-23T10:01:29;3.83;;;1.45;;
15039;SDS011;7617;47.366;8.558;2024-03-23T10:03:55;4.65;;;1.58;;
15039;SDS011;7617;47.366;8.558;2024-03-23T10:06:23;4.60;;;1.45;;
15039;SDS011;7617;47.366;8.558;2024-03-23T10:08:51;4.78;;;1.60;;
15039;SDS011;7617;47.366;8.558;2024-03-23T10:11:20;5.40;;;1.08;;
15039;SDS011;7617;47.366;8.558;2024-03-23T10:13:46;3.75;;;1.10;;
15039;SDS011;7617;47.366;8.558;2024-03-23T10:16:21;4.53;;;1.33;;
15039;SDS011;7617;47.366;8.558;2024-03-23T10:18:49;4.75;;;1.77;;
15039;SDS011;7617;47.366;8.558;2024-03-23T10:21:17;6.85;;;1.85;;
15039;SDS011;7617;47.366;8.558;2024-03-23T10:23:44;4.07;;;1.63;;
15039;SDS011;7617;47.366;8.558;2024-03-23T10:26:14;2.97;;;1.17;;
15039;SDS011;7617;47.366;8.558;2024-03-23T10:28:52;4.78;;;1.38;;
15039;SDS011;7617;47.366;8.558;2024-03-23T10:31:20;2.63;;;1.33;;
15039;SDS011;7617;47.366;8.558;2024-03-23T10:33:46;5.55;;;1.58;;
15039;SDS011;7617;47.366;8.558;2024-03-23T10:36:14;3.25;;;1.30;;
15039;SDS011;7617;47.366;8.558;2024-03-23T10:38:42;3.33;;;1.52;;
15039;SDS011;7617;47.366;8.558;2024-03-23T10:41:10;5.32;;;3.22;;
15039;SDS011;7617;47.366;8.558;2024-03-23T10:43:38;4.10;;;1.10;;
15039;SDS011;7617;47.366;8.558;2024-03-23T10:46:05;4.63;;;1.33;;
15039;SDS011;7617;47.366;8.558;2024-03-23T10:48:34;5.93;;;1.75;;
15039;SDS011;7617;47.366;8.558;2024-03-23T10:51:01;3.53;;;1.30;;
15039;SDS011;7617;47.366;8.558;2024-03-23T10:53:29;4.93;;;1.50;;
15039;SDS011;7617;47.366;8.558;2024-03-23T10:55:58;3.25;;;1.67;;
15039;SDS011;7617;47.366;8.558;2024-03-23T10:58:27;4.32;;;1.33;;
15039;SDS011;7617;47.366;8.558;2024-03-23T11:00:58;3.58;;;1.50;;
15039;SDS011;7617;47.366;8.558;2024-03-23T11:03:29;2.80;;;1.23;;
15039;SDS011;7617;47.366;8.558;2024-03-23T11:05:56;2.88;;;1.13;;
15039;SDS011;7617;47.366;8.558;2024-03-23T11:08:33;3.47;;;1.20;;
15039;SDS011;7617;47.366;8.558;2024-03-23T11:11:13;3.45;;;1.20;;
15039;SDS011;7617;47.366;8.558;2024-03-23T11:13:41;3.50;;;1.33;;
15039;SDS011;7617;47.366;8.558;2024-03-23T11:16:16;4.30;;;1.13;;
15039;SDS011;7617;47.366;8.558;2024-03-23T11:18:46;2.75;;;1.02;;
15039;SDS011;7617;47.366;8.558;2024-03-23T11:21:13;2.50;;;1.00;;
15039;SDS011;7617;47.366;8.558;2024-03-23T11:24:20;2.13;;;1.10;;
15039;SDS011;7617;47.366;8.558;2024-03-23T11:26:47;2.60;;;0.90;;
15039;SDS011;7617;47.366;8.558;2024-03-23T11:29:15;3.35;;;0.90;;
15039;SDS011;7617;47.366;8.558;2024-03-23T11:31:46;4.10;;;1.10;;
15039;SDS011;7617;47.366;8.558;2024-03-23T11:34:15;3.60;;;1.20;;
15039;SDS011;7617;47.366;8.558;2024-03-23T11:36:42;3.45;;;1.17;;
15039;SDS011;7617;47.366;8.558;2024-03-23T11:39:13;2.72;;;1.10;;
15039;SDS011;7617;47.366;8.558;2024-03-23T11:41:48;2.88;;;0.90;;
15039;SDS011;7617;47.366;8.558;2024-03-23T11:44:16;2.92;;;0.98;;
15039;SDS011;7617;47.366;8.558;2024-03-23T11:46:43;2.22;;;0.90;;
15039;SDS011;7617;47.366;8.558;2024-03-23T11:49:25;3.85;;;0.90;;
15039;SDS011;7617;47.366;8.558;2024-03-23T11:51:53;3.22;;;1.02;;
15039;SDS011;7617;47.366;8.558;2024-03-23T11:54:21;2.58;;;0.98;;
15039;SDS011;7617;47.366;8.558;2024-03-23T11:56:55;1.80;;;1.00;;
15039;SDS011;7617;47.366;8.558;2024-03-23T11:59:30;1.67;;;0.80;;
15039;SDS011;7617;47.366;8.558;2024-03-23T12:01:59;2.17;;;1.10;;
15039;SDS011;7617;47.366;8.558;2024-03-23T12:04:30;2.60;;;1.00;;
15039;SDS011;7617;47.366;8.558;2024-03-23T12:07:13;1.60;;;0.82;;
15039;SDS011;7617;47.366;8.558;2024-03-23T12:09:43;3.60;;;1.30;;
15039;SDS011;7617;47.366;8.558;2024-03-23T12:12:13;3.38;;;0.85;;
15039;SDS011;7617;47.366;8.558;2024-03-23T12:14:42;3.97;;;1.13;;
15039;SDS011;7617;47.366;8.558;2024-03-23T12:17:09;3.65;;;0.90;;
15039;SDS011;7617;47.366;8.558;2024-03-23T12:19:39;2.13;;;0.90;;
15039;SDS011;7617;47.366;8.558;2024-03-23T12:22:07;3.45;;;1.25;;
15039;SDS011;7617;47.366;8.558;2024-03-23T12:24:35;2.63;;;1.13;;
15039;SDS011;7617;47.366;8.558;2024-03-23T12:27:01;3.10;;;1.25;;
15039;SDS011;7617;47.366;8.558;2024-03-23T12:29:30;3.35;;;1.38;;
15039;SDS011;7617;47.366;8.558;2024-03-23T12:31:59;1.40;;;0.98;;
15039;SDS011;7617;47.366;8.558;2024-03-23T12:34:27;3.72;;;1.50;;
15039;SDS011;7617;47.366;8.558;2024-03-23T12:36:55;4.10;;;1.27;;
15039;SDS011;7617;47.366;8.558;2024-03-23T12:39:22;3.95;;;1.15;;
15039;SDS011;7617;47.366;8.558;2024-03-23T12:41:49;3.20;;;1.35;;
15039;SDS011;7617;47.366;8.558;2024-03-23T12:44:18;2.78;;;1.15;;
15039;SDS011;7617;47.366;8.558;2024-03-23T12:46:44;3.83;;;1.15;;
15039;SDS011;7617;47.366;8.558;2024-03-23T12:49:12;3.63;;;1.10;;
15039;SDS011;7617;47.366;8.558;2024-03-23T12:51:39;2.85;;;1.00;;
15039;SDS011;7617;47.366;8.558;2024-03-23T12:54:16;4.20;;;1.10;;
15039;SDS011;7617;47.366;8.558;2024-03-23T12:56:42;2.88;;;1.05;;
15039;SDS011;7617;47.366;8.558;2024-03-23T12:59:10;2.47;;;1.15;;
15039;SDS011;7617;47.366;8.558;2024-03-23T13:01:37;4.18;;;1.10;;
15039;SDS011;7617;47.366;8.558;2024-03-23T13:04:04;4.00;;;1.10;;
15039;SDS011;7617;47.366;8.558;2024-03-23T13:06:30;2.50;;;1.08;;
15039;SDS011;7617;47.366;8.558;2024-03-23T13:09:00;5.28;;;1.20;;
15039;SDS011;7617;47.366;8.558;2024-03-23T13:11:28;3.80;;;0.90;;
15039;SDS011;7617;47.366;8.558;2024-03-23T13:13:55;3.55;;;1.13;;
15039;SDS011;7617;47.366;8.558;2024-03-23T13:16:22;2.63;;;1.10;;
15039;SDS011;7617;47.366;8.558;2024-03-23T13:18:49;2.90;;;1.30;;
15039;SDS011;7617;47.366;8.558;2024-03-23T13:21:16;3.03;;;1.30;;
15039;SDS011;7617;47.366;8.558;2024-03-23T13:23:46;3.97;;;1.05;;
15039;SDS011;7617;47.366;8.558;2024-03-23T13:26:13;5.63;;;1.60;;
15039;SDS011;7617;47.366;8.558;2024-03-23T13:28:42;4.25;;;1.33;;
15039;SDS011;7617;47.366;8.558;2024-03-23T13:31:09;3.08;;;0.90;;
15039;SDS011;7617;47.366;8.558;2024-03-23T13:33:36;2.85;;;1.02;;
15039;SDS011;7617;47.366;8.558;2024-03-23T13:36:03;2.75;;;1.20;;
15039;SDS011;7617;47.366;8.558;2024-03-23T13:38:31;3.35;;;1.05;;
15039;SDS011;7617;47.366;8.558;2024-03-23T13:40:58;4.03;;;1.40;;
15039;SDS011;7617;47.366;8.558;2024-03-23T13:43:26;2.13;;;0.95;;
15039;SDS011;7617;47.366;8.558;2024-03-23T13:45:56;2.05;;;0.80;;
15039;SDS011;7617;47.366;8.558;2024-03-23T13:48:25;3.15;;;0.93;;
15039;SDS011;7617;47.366;8.558;2024-03-23T13:50:58;2.17;;;0.93;;
15039;SDS011;7617;47.366;8.558;2024-03-23T13:53:26;1.98;;;0.82;;
15039;SDS011;7617;47.366;8.558;2024-03-23T13:55:52;3.40;;;1.10;;
15039;SDS011;7617;47.366;8.558;2024-03-23T13:58:20;3.85;;;1.05;;
15039;SDS011;7617;47.366;8.558;2024-03-23T14:00:47;3.42;;;1.25;;
15039;SDS011;7617;47.366;8.558;2024-03-23T14:03:16;3.35;;;1.20;;
15039;SDS011;7617;47.366;8.558;2024-03-23T14:05:43;2.90;;;1.00;;
15039;SDS011;7617;47.366;8.558;2024-03-23T14:08:13;4.20;;;1.00;;
15039;SDS011;7617;47.366;8.558;2024-03-23T14:10:40;3.92;;;1.20;;
15039;SDS011;7617;47.366;8.558;2024-03-23T14:13:08;2.83;;;0.90;;
15039;SDS011;7617;47.366;8.558;2024-03-23T14:15:34;5.90;;;1.10;;
15039;SDS011;7617;47.366;8.558;2024-03-23T14:18:03;3.95;;;1.05;;
15039;SDS011;7617;47.366;8.558;2024-03-23T14:20:31;2.13;;;1.10;;
15039;SDS011;7617;47.366;8.558;2024-03-23T14:22:59;4.43;;;1.02;;
15039;SDS011;7617;47.366;8.558;2024-03-23T14:25:26;2.60;;;1.13;;
15039;SDS011;7617;47.366;8.558;2024-03-23T14:27:55;5.57;;;1.23;;
15039;SDS011;7617;47.366;8.558;2024-03-23T14:30:22;2.95;;;1.00;;
15039;SDS011;7617;47.366;8.558;2024-03-23T14:32:50;3.35;;;1.00;;
15039;SDS011;7617;47.366;8.558;2024-03-23T14:35:17;3.20;;;1.17;;
15039;SDS011;7617;47.366;8.558;2024-03-23T14:37:46;2.78;;;1.13;;
15039;SDS011;7617;47.366;8.558;2024-03-23T14:40:12;1.95;;;0.88;;
15039;SDS011;7617;47.366;8.558;2024-03-23T14:42:40;3.03;;;1.00;;
15039;SDS011;7617;47.366;8.558;2024-03-23T14:45:07;2.28;;;1.10;;
15039;SDS011;7617;47.366;8.558;2024-03-23T14:47:37;3.60;;;1.08;;
15039;SDS011;7617;47.366;8.558;2024-03-23T14:50:03;3.13;;;1.08;;
15039;SDS011;7617;47.366;8.558;2024-03-23T14:52:34;2.53;;;1.00;;
15039;SDS011;7617;47.366;8.558;2024-03-23T14:55:02;3.45;;;1.40;;
15039;SDS011;7617;47.366;8.558;2024-03-23T14:57:30;3.25;;;1.10;;
15039;SDS011;7617;47.366;8.558;2024-03-23T14:59:56;3.15;;;1.05;;
15039;SDS011;7617;47.366;8.558;2024-03-23T15:02:24;3.08;;;1.00;;
15039;SDS011;7617;47.366;8.558;2024-03-23T15:04:50;3.17;;;0.98;;
15039;SDS011;7617;47.366;8.558;2024-03-23T15:07:17;3.72;;;1.00;;
15039;SDS011;7617;47.366;8.558;2024-03-23T15:09:43;2.33;;;1.00;;
15039;SDS011;7617;47.366;8.558;2024-03-23T15:12:11;3.17;;;1.00;;
15039;SDS011;7617;47.366;8.558;2024-03-23T15:14:37;3.70;;;1.08;;
15039;SDS011;7617;47.366;8.558;2024-03-23T15:17:05;5.35;;;1.67;;
15039;SDS011;7617;47.366;8.558;2024-03-23T15:19:34;2.28;;;1.00;;
15039;SDS011;7617;47.366;8.558;2024-03-23T15:22:01;2.85;;;0.90;;
15039;SDS011;7617;47.366;8.558;2024-03-23T15:24:28;2.33;;;0.82;;
15039;SDS011;7617;47.366;8.558;2024-03-23T15:26:57;2.90;;;0.98;;
15039;SDS011;7617;47.366;8.558;2024-03-23T15:29:24;2.38;;;1.02;;
15039;SDS011;7617;47.366;8.558;2024-03-23T15:31:52;3.17;;;1.25;;
15039;SDS011;7617;47.366;8.558;2024-03-23T15:34:18;3.22;;;1.30;;
15039;SDS011;7617;47.366;8.558;2024-03-23T15:36:47;2.97;;;0.90;;
15039;SDS011;7617;47.366;8.558;2024-03-23T15:39:15;2.58;;;0.80;;
15039;SDS011;7617;47.366;8.558;2024-03-23T15:41:44;2.70;;;0.90;;
15039;SDS011;7617;47.366;8.558;2024-03-23T15:44:10;5.18;;;1.00;;
15039;SDS011;7617;47.366;8.558;2024-03-23T15:46:39;3.08;;;0.80;;
15039;SDS011;7617;47.366;8.558;2024-03-23T15:49:05;3.75;;;1.00;;
15039;SDS011;7617;47.366;8.558;2024-03-23T15:51:32;1.63;;;0.80;;
15039;SDS011;7617;47.366;8.558;2024-03-23T15:54:00;3.97;;;1.33;;
15039;SDS011;7617;47.366;8.558;2024-03-23T15:56:28;2.40;;;0.90;;
15039;SDS011;7617;47.366;8.558;2024-03-23T15:58:55;2.88;;;1.00;;